createdAt,value
2018-12-26T00:01:52.032Z,101042.59
2018-12-26T00:04:20.968Z,101042.38
2018-12-26T00:12:19.750Z,101033.50
2018-12-26T00:14:48.672Z,101042.81
2018-12-26T00:17:17.406Z,101048.02
2018-12-26T00:19:46.376Z,101045.77
2018-12-26T00:22:15.270Z,101036.67
2018-12-26T00:24:44.267Z,101034.53
2018-12-26T00:27:13.315Z,101024.47
2018-12-26T00:32:24.309Z,101012.48
2018-12-26T00:35:12.271Z,101023.33
2018-12-26T00:40:15.486Z,101006.63
2018-12-26T00:42:44.612Z,101011.36
2018-12-26T00:45:13.736Z,101014.28
2018-12-26T00:47:42.740Z,101010.31
2018-12-26T00:50:11.512Z,101008.04
2018-12-26T00:52:40.445Z,101001.53
2018-12-26T00:55:09.466Z,100999.78
2018-12-26T00:57:38.369Z,100992.45
2018-12-26T01:00:07.585Z,100992.81
2018-12-26T01:02:36.724Z,100986.55
2018-12-26T01:05:05.846Z,100995.66
2018-12-26T01:07:34.574Z,100998.70
2018-12-26T01:10:03.598Z,100991.71
2018-12-26T01:12:32.909Z,100997.50
2018-12-26T01:17:36.648Z,100999.25
2018-12-26T01:20:05.832Z,101007.77
2018-12-26T01:25:09.631Z,101009.89
2018-12-26T01:27:38.679Z,101008.58
2018-12-26T01:30:07.962Z,101008.58
2018-12-26T01:32:36.666Z,101004.19
2018-12-26T01:35:05.696Z,101000.27
2018-12-26T01:37:34.421Z,101003.36
2018-12-26T01:40:03.573Z,100999.48
2018-12-26T01:42:32.284Z,101005.03
2018-12-26T01:45:01.357Z,101007.05
2018-12-26T01:47:30.475Z,101006.87
2018-12-26T01:52:53.389Z,100991.86
2018-12-26T01:57:56.182Z,100985.03
2018-12-26T02:00:25.301Z,100983.67
2018-12-26T02:02:54.224Z,100979.89
2018-12-26T02:05:23.124Z,100978.45
2018-12-26T02:13:01.179Z,100976.73
2018-12-26T02:18:56.656Z,100981.03
2018-12-26T02:21:25.565Z,100983.23
2018-12-26T02:23:54.521Z,100975.48
2018-12-26T02:28:58.338Z,100975.34
2018-12-26T02:34:01.899Z,100977.37
2018-12-26T02:39:44.994Z,100972.84
2018-12-26T02:44:48.043Z,100958.05
2018-12-26T02:47:16.896Z,100962.80
2018-12-26T02:49:45.710Z,100958.48
2018-12-26T02:52:14.693Z,100951.41
2018-12-26T02:54:43.408Z,100950.69
2018-12-26T02:59:46.893Z,100951.91
2018-12-26T03:04:49.890Z,100959.77
2018-12-26T03:07:18.729Z,100951.59
2018-12-26T03:09:47.616Z,100952.70
2018-12-26T03:12:16.313Z,100941.38
2018-12-26T03:17:19.546Z,100942.06
2018-12-26T03:19:48.558Z,100937.35
2018-12-26T03:24:52.279Z,100929.63
2018-12-26T03:29:55.710Z,100930.06
2018-12-26T03:32:24.689Z,100923.97
2018-12-26T03:34:53.838Z,100918.68
2018-12-26T03:37:22.685Z,100923.14
2018-12-26T03:39:51.958Z,100921.41
2018-12-26T03:42:21.135Z,100915.00
2018-12-26T03:45:29.998Z,100908.52
2018-12-26T03:48:38.602Z,100910.23
2018-12-26T03:53:43.081Z,100890.22
2018-12-26T03:56:12.143Z,100890.39
2018-12-26T03:58:40.920Z,100884.77
2018-12-26T04:01:09.997Z,100892.08
2018-12-26T04:03:39.036Z,100890.84
2018-12-26T04:06:07.838Z,100887.86
2018-12-26T04:08:36.872Z,100884.19
2018-12-26T04:11:24.786Z,100876.87
2018-12-26T04:13:53.549Z,100883.14
2018-12-26T04:16:22.447Z,100880.17
2018-12-26T04:18:51.149Z,100889.17
2018-12-26T04:21:20.118Z,100883.75
2018-12-26T04:23:48.887Z,100875.59
2018-12-26T04:26:18.000Z,100873.06
2018-12-26T04:36:52.502Z,100890.80
2018-12-26T04:39:21.377Z,100884.52
2018-12-26T04:41:50.158Z,100887.61
2018-12-26T04:44:38.318Z,100881.25
2018-12-26T04:47:07.353Z,100884.98
2018-12-26T04:49:36.106Z,100877.90
2018-12-26T04:54:39.372Z,100882.98
2018-12-26T04:57:08.203Z,100883.91
2018-12-26T04:59:37.333Z,100892.02
2018-12-26T05:02:25.312Z,100893.22
2018-12-26T05:05:13.314Z,100885.02
2018-12-26T05:10:17.134Z,100886.49
2018-12-26T05:12:45.961Z,100886.76
2018-12-26T05:15:15.010Z,100889.81
2018-12-26T05:17:43.982Z,100895.92
2018-12-26T05:20:12.937Z,100893.97
2018-12-26T05:22:41.976Z,100899.21
2018-12-26T05:25:10.901Z,100896.83
2018-12-26T05:27:39.687Z,100892.96
2018-12-26T05:30:08.522Z,100896.74
2018-12-26T05:32:37.428Z,100900.36
2018-12-26T05:35:06.481Z,100896.48
2018-12-26T05:40:09.643Z,100902.81
2018-12-26T05:45:13.331Z,100898.66
2018-12-26T05:47:42.510Z,100909.45
2018-12-26T05:50:11.619Z,100915.16
2018-12-26T05:52:40.670Z,100915.16
2018-12-26T05:57:43.929Z,100916.83
2018-12-26T06:02:47.317Z,100924.72
2018-12-26T06:05:16.542Z,100929.53
2018-12-26T06:10:19.729Z,100926.26
2018-12-26T06:12:48.656Z,100925.37
2018-12-26T06:15:18.002Z,100930.60
2018-12-26T06:17:46.861Z,100926.31
2018-12-26T06:20:34.925Z,100925.52
2018-12-26T06:23:03.608Z,100925.19
2018-12-26T06:25:32.459Z,100923.50
2018-12-26T06:28:01.419Z,100927.73
2018-12-26T06:30:30.453Z,100928.69
2018-12-26T06:35:33.065Z,100931.03
2018-12-26T06:38:01.825Z,100932.22
2018-12-26T06:43:05.479Z,100936.42
2018-12-26T06:48:08.816Z,100944.03
2018-12-26T06:50:57.201Z,100938.84
2018-12-26T06:53:25.887Z,100954.05
2018-12-26T06:55:54.573Z,100949.26
2018-12-26T07:00:57.245Z,100951.02
2018-12-26T07:03:26.177Z,100950.27
2018-12-26T07:05:54.878Z,100944.42
2018-12-26T07:08:23.646Z,100947.91
2018-12-26T07:10:52.357Z,100954.09
2018-12-26T07:13:21.337Z,100952.02
2018-12-26T07:15:50.014Z,100954.89
2018-12-26T07:18:18.717Z,100963.38
2018-12-26T07:20:47.568Z,100960.75
2018-12-26T07:23:16.571Z,100968.25
2018-12-26T07:25:45.336Z,100969.67
2018-12-26T07:28:14.028Z,100963.56
2018-12-26T07:30:42.716Z,100967.41
2018-12-26T07:35:46.064Z,100975.25
2018-12-26T07:40:49.352Z,100977.05
2018-12-26T07:43:18.130Z,100979.14
2018-12-26T07:45:46.848Z,100983.66
2018-12-26T07:48:15.492Z,100988.03
2018-12-26T07:50:44.201Z,100989.83
2018-12-26T07:53:12.893Z,100994.59
2018-12-26T07:55:41.693Z,100992.02
2018-12-26T08:00:45.559Z,100990.36
2018-12-26T08:03:14.328Z,100989.08
2018-12-26T08:05:43.111Z,100995.73
2018-12-26T08:08:11.865Z,100993.50
2018-12-26T08:13:34.732Z,100994.88
2018-12-26T08:16:03.428Z,100987.27
2018-12-26T08:18:32.100Z,100984.86
2018-12-26T08:21:00.790Z,100990.64
2018-12-26T08:23:29.593Z,100994.14
2018-12-26T08:25:58.283Z,100990.64
2018-12-26T08:28:27.105Z,100991.26
2018-12-26T08:30:55.866Z,100992.69
2018-12-26T08:33:24.635Z,100993.66
2018-12-26T08:35:53.354Z,100993.77
2018-12-26T08:41:09.862Z,100991.95
2018-12-26T08:43:38.567Z,100988.57
2018-12-26T08:46:07.261Z,100994.67
2018-12-26T08:48:35.985Z,100987.70
2018-12-26T08:51:04.756Z,100990.70
2018-12-26T08:53:33.444Z,100996.25
2018-12-26T08:56:02.150Z,100991.64
2018-12-26T08:58:35.210Z,100995.86
2018-12-26T09:01:01.734Z,100993.69
2018-12-26T09:09:33.054Z,100998.62
2018-12-26T09:12:01.743Z,101003.10
2018-12-26T09:14:30.613Z,101005.30
2018-12-26T09:16:59.342Z,101005.22
2018-12-26T09:19:28.198Z,100998.31
2018-12-26T09:24:50.901Z,101000.01
2018-12-26T09:30:19.337Z,101003.41
2018-12-26T09:32:48.076Z,101002.11
2018-12-26T09:35:16.777Z,101004.16
2018-12-26T09:40:20.159Z,100999.06
2018-12-26T09:43:09.198Z,100995.92
2018-12-26T09:45:39.502Z,100994.67
2018-12-26T09:48:27.917Z,100985.86
2018-12-26T09:53:51.601Z,100975.73
2018-12-26T09:58:55.676Z,100971.20
2018-12-26T10:04:00.387Z,100971.29
2018-12-26T10:06:29.257Z,100974.43
2018-12-26T10:09:17.164Z,100979.07
2018-12-26T10:11:45.855Z,100979.07
2018-12-26T10:14:33.880Z,100975.73
2018-12-26T10:17:02.584Z,100972.28
2018-12-26T10:19:31.282Z,100972.28
2018-12-26T10:21:59.988Z,100968.38
2018-12-26T10:24:48.451Z,100964.39
2018-12-26T10:29:51.372Z,100959.94
2018-12-26T10:32:20.033Z,100962.41
2018-12-26T10:37:23.406Z,100963.94
2018-12-26T10:39:52.123Z,100960.55
2018-12-26T10:42:20.825Z,100964.04
2018-12-26T10:44:49.527Z,100957.06
2018-12-26T10:47:37.881Z,100951.45
2018-12-26T10:50:11.247Z,100945.33
2018-12-26T10:55:46.990Z,100944.06
2018-12-26T11:00:49.568Z,100939.72
2018-12-26T11:03:38.171Z,100944.56
2018-12-26T11:06:26.238Z,100944.63
2018-12-26T11:09:14.428Z,100934.66
2018-12-26T11:11:44.080Z,100934.66
2018-12-26T11:14:12.780Z,100928.96
2018-12-26T11:16:41.473Z,100928.47
2018-12-26T11:19:29.516Z,100923.66
2018-12-26T11:24:32.523Z,100912.02
2018-12-26T11:29:35.484Z,100902.89
2018-12-26T11:32:23.931Z,100900.85
2018-12-26T11:38:02.129Z,100895.13
2018-12-26T11:40:50.490Z,100888.81
2018-12-26T11:43:38.801Z,100884.41
2018-12-26T11:46:07.486Z,100884.95
2018-12-26T11:48:36.184Z,100879.30
2018-12-26T11:53:58.048Z,100870.13
2018-12-26T11:56:26.749Z,100865.76
2018-12-26T11:58:55.468Z,100866.65
2018-12-26T12:01:43.491Z,100866.28
2018-12-26T12:04:12.287Z,100865.88
2018-12-26T12:12:09.276Z,100861.23
2018-12-26T12:17:45.101Z,100852.06
2018-12-26T12:20:13.800Z,100853.38
2018-12-26T12:23:01.888Z,100859.31
2018-12-26T12:25:30.582Z,100854.66
2018-12-26T12:27:59.389Z,100850.06
2018-12-26T12:33:03.868Z,100846.20
2018-12-26T12:35:51.892Z,100841.77
2018-12-26T12:38:20.970Z,100836.37
2018-12-26T12:43:43.578Z,100830.16
2018-12-26T12:46:31.627Z,100834.47
2018-12-26T12:49:19.615Z,100830.08
2018-12-26T12:51:48.310Z,100830.08
2018-12-26T12:54:17.006Z,100826.56
2018-12-26T12:56:45.699Z,100829.64
2018-12-26T12:59:14.491Z,100827.19
2018-12-26T13:02:22.928Z,100825.39
2018-12-26T13:04:52.006Z,100820.36
2018-12-26T13:07:20.688Z,100813.47
2018-12-26T13:10:08.785Z,100818.28
2018-12-26T13:12:37.471Z,100815.83
2018-12-26T13:15:25.372Z,100818.27
2018-12-26T13:17:54.042Z,100815.99
2018-12-26T13:20:22.738Z,100813.83
2018-12-26T13:23:10.628Z,100815.53
2018-12-26T13:25:39.318Z,100820.27
2018-12-26T13:31:05.008Z,100817.53
2018-12-26T13:33:51.606Z,100815.00
2018-12-26T13:36:20.587Z,100816.20
2018-12-26T13:38:49.556Z,100808.34
2018-12-26T13:43:52.115Z,100810.20
2018-12-26T13:46:20.846Z,100810.59
2018-12-26T13:48:49.536Z,100805.45
2018-12-26T13:51:37.446Z,100811.09
2018-12-26T13:54:06.124Z,100808.91
2018-12-26T13:56:35.137Z,100810.30
2018-12-26T13:59:03.906Z,100809.47
2018-12-26T14:01:32.587Z,100811.27
2018-12-26T14:06:35.411Z,100819.02
2018-12-26T14:09:16.908Z,100811.72
2018-12-26T14:11:45.585Z,100807.39
2018-12-26T14:14:14.274Z,100802.52
2018-12-26T14:16:42.973Z,100795.98
2018-12-26T14:19:13.013Z,100797.34
2018-12-26T14:21:42.136Z,100797.32
2018-12-26T14:24:10.878Z,100801.19
2018-12-26T14:26:39.546Z,100792.89
2018-12-26T14:29:08.243Z,100800.34
2018-12-26T14:31:37.033Z,100799.06
2018-12-26T14:36:40.549Z,100794.98
2018-12-26T14:39:09.270Z,100793.14
2018-12-26T14:41:38.291Z,100794.43
2018-12-26T14:44:07.077Z,100794.00
2018-12-26T14:49:10.339Z,100790.89
2018-12-26T14:51:58.359Z,100791.52
2018-12-26T14:54:27.057Z,100793.16
2018-12-26T14:57:15.061Z,100783.71
2018-12-26T14:59:44.119Z,100792.10
2018-12-26T15:02:12.878Z,100798.27
2018-12-26T15:07:35.092Z,100784.80
2018-12-26T15:10:03.992Z,100786.60
2018-12-26T15:12:32.673Z,100785.79
2018-12-26T15:15:01.363Z,100781.02
2018-12-26T15:20:04.887Z,100784.19
2018-12-26T15:22:33.783Z,100785.98
2018-12-26T15:25:21.804Z,100789.98
2018-12-26T15:27:50.528Z,100786.09
2018-12-26T15:36:01.178Z,100780.98
2018-12-26T15:38:30.652Z,100783.59
2018-12-26T15:40:59.410Z,100784.11
2018-12-26T15:43:47.436Z,100783.26
2018-12-26T15:46:16.138Z,100783.32
2018-12-26T15:48:44.829Z,100781.17
2018-12-26T15:51:32.766Z,100784.27
2018-12-26T15:54:01.848Z,100793.00
2018-12-26T15:56:49.783Z,100789.53
2018-12-26T15:59:18.475Z,100792.66
2018-12-26T16:02:06.396Z,100792.30
2018-12-26T16:04:35.098Z,100784.53
2018-12-26T16:07:03.798Z,100784.96
2018-12-26T16:09:51.704Z,100791.48
2018-12-26T16:12:20.405Z,100794.55
2018-12-26T16:17:42.639Z,100793.25
2018-12-26T16:20:31.091Z,100783.26
2018-12-26T16:22:59.900Z,100780.20
2018-12-26T16:25:28.574Z,100780.64
2018-12-26T16:28:16.475Z,100777.57
2018-12-26T16:31:04.412Z,100773.23
2018-12-26T16:36:07.334Z,100778.03
2018-12-26T16:38:55.325Z,100784.53
2018-12-26T16:41:43.332Z,100778.47
2018-12-26T16:46:46.796Z,100775.87
2018-12-26T16:52:28.713Z,100780.22
2018-12-26T16:54:57.417Z,100780.22
2018-12-26T16:57:45.325Z,100775.88
2018-12-26T17:02:49.245Z,100777.19
2018-12-26T17:05:17.964Z,100770.69
2018-12-26T17:07:46.642Z,100767.19
2018-12-26T17:10:17.881Z,100766.33
2018-12-26T17:13:05.919Z,100766.75
2018-12-26T17:15:53.949Z,100770.23
2018-12-26T17:18:41.965Z,100773.30
2018-12-26T17:24:23.241Z,100771.09
2018-12-26T17:27:11.275Z,100764.16
2018-12-26T17:29:59.183Z,100767.20
2018-12-26T17:35:21.788Z,100764.58
2018-12-26T17:37:50.507Z,100768.89
2018-12-26T17:40:38.407Z,100763.22
2018-12-26T17:43:26.443Z,100759.32
2018-12-26T17:46:14.547Z,100759.32
2018-12-26T17:51:20.260Z,100760.64
2018-12-26T17:57:27.405Z,100760.64
2018-12-26T18:02:53.023Z,100758.04
2018-12-26T18:05:21.780Z,100762.77
2018-12-26T18:07:50.492Z,100759.73
2018-12-26T18:10:19.582Z,100765.37
2018-12-26T18:12:48.303Z,100763.63
2018-12-26T18:15:36.332Z,100762.36
2018-12-26T18:18:24.349Z,100760.59
2018-12-26T18:21:12.381Z,100761.47
2018-12-26T18:23:41.080Z,100760.60
2018-12-26T18:26:09.794Z,100764.95
2018-12-26T18:28:38.494Z,100759.30
2018-12-26T18:31:26.390Z,100763.21
2018-12-26T18:33:55.101Z,100766.23
2018-12-26T18:36:23.874Z,100759.73
2018-12-26T18:38:52.574Z,100758.85
2018-12-26T18:41:21.291Z,100762.33
2018-12-26T18:43:49.997Z,100763.20
2018-12-26T18:48:52.912Z,100754.08
2018-12-26T18:51:21.641Z,100756.25
2018-12-26T18:53:50.910Z,100747.13
2018-12-26T18:56:59.395Z,100746.66
2018-12-26T18:59:28.554Z,100744.08
2018-12-26T19:01:57.610Z,100744.06
2018-12-26T19:04:26.745Z,100751.94
2018-12-26T19:07:14.550Z,100752.37
2018-12-26T19:09:43.365Z,100746.31
2018-12-26T19:12:12.073Z,100749.77
2018-12-26T19:15:00.221Z,100754.58
2018-12-26T19:17:29.314Z,100757.62
2018-12-26T19:19:58.429Z,100754.12
2018-12-26T19:22:27.222Z,100763.26
2018-12-26T19:28:03.586Z,100757.20
2018-12-26T19:30:32.305Z,100760.23
2018-12-26T19:33:01.216Z,100755.45
2018-12-26T19:35:30.135Z,100748.95
2018-12-26T19:41:07.431Z,100743.29
2018-12-26T19:43:36.420Z,100743.29
2018-12-26T19:48:59.117Z,100738.94
2018-12-26T19:54:02.418Z,100734.16
2018-12-26T19:56:50.469Z,100735.45
2018-12-26T19:59:19.305Z,100735.45
2018-12-26T20:01:48.597Z,100733.27
2018-12-26T20:04:18.950Z,100737.63
2018-12-26T20:07:06.768Z,100732.43
2018-12-26T20:09:35.547Z,100736.34
2018-12-26T20:12:25.514Z,100735.89
2018-12-26T20:14:54.256Z,100732.84
2018-12-26T20:17:23.020Z,100734.17
2018-12-26T20:20:11.136Z,100739.80
2018-12-26T20:22:40.010Z,100734.17
2018-12-26T20:25:08.893Z,100735.45
2018-12-26T20:27:57.318Z,100730.66
2018-12-26T20:30:45.493Z,100740.23
2018-12-26T20:33:33.309Z,100739.77
2018-12-26T20:36:21.268Z,100737.55
2018-12-26T20:45:00.290Z,100734.93
2018-12-26T20:47:48.498Z,100732.31
2018-12-26T20:50:58.703Z,100731.41
2018-12-26T20:54:10.007Z,100737.05
2018-12-26T21:02:27.546Z,100726.71
2018-12-26T21:05:18.410Z,100726.71
2018-12-26T21:08:28.436Z,100722.83
2018-12-26T21:11:16.582Z,100720.27
2018-12-26T21:13:45.523Z,100718.95
2018-12-26T21:16:14.305Z,100718.08
2018-12-26T21:18:57.166Z,100712.88
2018-12-26T21:22:06.174Z,100720.27
2018-12-26T21:25:15.754Z,100718.06
2018-12-26T21:28:07.661Z,100700.23
2018-12-26T21:33:49.674Z,100700.67
2018-12-26T21:36:18.403Z,100702.41
2018-12-26T21:38:47.191Z,100697.20
2018-12-26T21:41:16.014Z,100694.59
2018-12-26T21:46:40.517Z,100691.98
2018-12-26T21:52:04.558Z,100689.39
2018-12-26T21:54:52.578Z,100682.00
2018-12-26T21:57:40.664Z,100676.35
2018-12-26T22:00:49.651Z,100678.55
2018-12-26T22:09:23.420Z,100666.36
2018-12-26T22:12:11.547Z,100680.69
2018-12-26T22:14:40.284Z,100675.45
2018-12-26T22:17:28.241Z,100675.45
2018-12-26T22:20:08.995Z,100670.69
2018-12-26T22:25:12.489Z,100671.05
2018-12-26T22:27:41.380Z,100664.52
2018-12-26T22:30:50.884Z,100661.02
2018-12-26T22:36:14.281Z,100656.20
2018-12-26T22:41:37.046Z,100654.93
2018-12-26T22:44:46.336Z,100651.05
2018-12-26T22:47:15.245Z,100648.42
2018-12-26T22:53:12.099Z,100641.95
2018-12-26T22:58:50.783Z,100641.09
2018-12-26T23:01:39.264Z,100636.37
2018-12-26T23:07:06.963Z,100639.41
2018-12-26T23:09:37.571Z,100640.27
2018-12-26T23:17:56.499Z,100635.06
2018-12-26T23:23:54.527Z,100628.95
2018-12-26T23:27:04.240Z,100626.84
2018-12-26T23:29:55.046Z,100625.09
2018-12-26T23:32:24.843Z,100625.52
2018-12-26T23:35:12.987Z,100622.41
2018-12-26T23:38:01.906Z,100615.89
2018-12-26T23:40:50.145Z,100604.59
2018-12-26T23:46:50.687Z,100612.41
2018-12-26T23:49:59.753Z,100603.70
2018-12-26T23:52:48.898Z,100596.33
2018-12-26T23:58:27.186Z,100604.11
